Time;durP1;ratioP1;P1;durP2;ratioP2;P2;SDS_P1;SDS_P2;PMS_P1;PMS_P2;Temp;Humidity;BMP_temperature;BMP_pressure;BME280_temperature;BME280_humidity;BME280_pressure;Samples;Min_cycle;Max_cycle;Signal;HPM_P1;HPM_P2
2022/08/05 00:01:35;;;;;;;;;;;;;;;;;;5111058;28;967;-71
2022/08/05 00:04:00;;;;;;;;;;;;;;;;;;5112503;28;840;-71
2022/08/05 00:06:25;;;;;;;;;;;;;;;;;;5112044;28;896;-71
2022/08/05 00:08:50;;;;;;;;;;;;;;;;;;5111357;28;817;-71
2022/08/05 00:11:16;;;;;;;;;;;;;;;;;;5094304;28;892;-71
2022/08/05 00:13:43;;;;;;;;;;;;;;;;;;5112040;28;1183;-71
2022/08/05 00:16:10;;;;;;;;;;;;;;;;;;5112667;28;1906;-71
2022/08/05 00:18:36;;;;;;;;;;;;;;;;;;5112032;28;816;-70
2022/08/05 00:21:01;;;;;;;;;;;;;;;;;;5112081;28;923;-70
2022/08/05 00:23:26;;;;;;;;;;;;;;;;;;5111978;28;971;-70
2022/08/05 00:25:51;;;;;;;;;;;;;;;;;;5110524;28;1080;-70
2022/08/05 00:28:17;;;;;;;;;;;;;;;;;;5112314;28;888;-70
2022/08/05 00:30:43;;;;;;;;;;;;;;;;;;5112179;28;789;-69
2022/08/05 00:33:08;;;;;;;;;;;;;;;;;;5112376;28;1059;-70
2022/08/05 00:35:33;;;;;;;;;;;;;;;;;;5111030;28;935;-70
2022/08/05 00:37:59;;;;;;;;;;;;;;;;;;5111893;28;1967;-70
2022/08/05 00:40:24;;;;;;;;;;;;;;;;;;5111811;28;879;-70
2022/08/05 00:42:50;;;;;;;;;;;;;;;;;;5111563;28;943;-70
2022/08/05 00:45:15;;;;;;;;;;;;;;;;;;5112172;28;887;-70
2022/08/05 00:47:40;;;;;;;;;;;;;;;;;;5111853;28;1031;-70
2022/08/05 00:50:06;;;;;;;;;;;;;;;;;;5111878;28;876;-69
2022/08/05 00:52:31;;;;;;;;;;;;;;;;;;5112195;28;793;-71
2022/08/05 00:54:57;;;;;;;;;;;;;;;;;;5111607;28;965;-70
2022/08/05 00:57:22;;;;;;;;;;;;;;;;;;5111492;28;1975;-70
2022/08/05 00:59:47;;;;;;;;;;;;;;;;;;5111408;28;860;-70
2022/08/05 01:02:12;;;;;;;;;;;;;;;;;;5112225;28;920;-69
2022/08/05 01:04:38;;;;;;;;;;;;;;;;;;5112129;28;1073;-70
2022/08/05 01:07:03;;;;;;;;;;;;;;;;;;5112210;28;837;-70
2022/08/05 01:09:28;;;;;;;;;;;;;;;;;;5112252;28;911;-70
2022/08/05 01:11:57;;;;;;;;;;;;;;;;;;5112153;28;1082;-70
2022/08/05 01:14:40;;;;;;;;;;;;;;;;;;5112123;28;958;-70
2022/08/05 01:17:09;;;;;;;;;;;;;;;;;;5111774;28;1913;-71
2022/08/05 01:19:37;;;;;;;;;;;;;;;;;;5111209;28;876;-70
2022/08/05 01:22:10;;;;;;;;;;;;;;;;;;5111408;28;1050;-70
2022/08/05 01:24:50;;;;;;;;;;;;;;;;;;5111762;28;606;-71
2022/08/05 01:27:21;;;;;;;;;;;;;;;;;;5111210;28;901;-71
2022/08/05 01:29:48;;;;;;;;;;;;;;;;;;5111902;28;848;-71
2022/08/05 01:32:17;;;;;;;;;;;;;;;;;;5111687;28;1007;-71
2022/08/05 01:34:45;;;;;;;;;;;;;;;;;;5111573;28;848;-71
2022/08/05 01:37:16;;;;;;;;;;;;;;;;;;5111627;28;1906;-71
2022/08/05 01:39:43;;;;;;;;;;;;;;;;;;5111268;28;1069;-71
2022/08/05 01:42:11;;;;;;;;;;;;;;;;;;5111418;28;1222;-71
2022/08/05 01:44:38;;;;;;;;;;;;;;;;;;5109871;28;1175;-71
2022/08/05 01:47:03;;;;;;;;;;;;;;;;;;5113553;28;891;-71
2022/08/05 01:49:31;;;;;;;;;;;;;;;;;;5115300;28;831;-70
2022/08/05 01:51:58;;;;;;;;;;;;;;;;;;5113887;28;851;-70
2022/08/05 01:54:25;;;;;;;;;;;;;;;;;;5115022;28;907;-70
2022/08/05 01:56:52;;;;;;;;;;;;;;;;;;5113920;28;1902;-70
2022/08/05 01:59:19;;;;;;;;;;;;;;;;;;5113932;28;860;-70
2022/08/05 02:01:46;;;;;;;;;;;;;;;;;;5115612;28;990;-70
2022/08/05 02:04:13;;;;;;;;;;;;;;;;;;5114160;28;1213;-69
2022/08/05 02:06:39;;;;;;;;;;;;;;;;;;5114825;28;863;-70
2022/08/05 02:09:04;;;;;;;;;;;;;;;;;;5115203;28;971;-70
2022/08/05 02:11:39;;;;;;;;;;;;;;;;;;5114517;28;912;-70
2022/08/05 02:14:09;;;;;;;;;;;;;;;;;;5115145;28;1091;-71
2022/08/05 02:16:45;;;;;;;;;;;;;;;;;;5114597;28;1968;-70
2022/08/05 02:19:16;;;;;;;;;;;;;;;;;;5115084;28;887;-70
2022/08/05 02:21:45;;;;;;;;;;;;;;;;;;5114781;28;904;-71
2022/08/05 02:24:15;;;;;;;;;;;;;;;;;;5115662;28;950;-71
2022/08/05 02:26:45;;;;;;;;;;;;;;;;;;5115035;28;924;-71
2022/08/05 02:29:11;;;;;;;;;;;;;;;;;;5114236;28;998;-71
2022/08/05 02:31:37;;;;;;;;;;;;;;;;;;5113702;28;856;-70
2022/08/05 02:34:05;;;;;;;;;;;;;;;;;;5115361;28;907;-70
2022/08/05 02:36:31;;;;;;;;;;;;;;;;;;5114604;28;1901;-70
2022/08/05 02:38:57;;;;;;;;;;;;;;;;;;5115296;28;1034;-70
2022/08/05 02:41:24;;;;;;;;;;;;;;;;;;5113358;28;875;-70
2022/08/05 02:43:50;;;;;;;;;;;;;;;;;;5115144;28;834;-71
2022/08/05 02:46:16;;;;;;;;;;;;;;;;;;5114396;28;983;-70
2022/08/05 02:48:43;;;;;;;;;;;;;;;;;;5115149;28;801;-70
2022/08/05 02:51:08;;;;;;;;;;;;;;;;;;5115118;28;849;-70
2022/08/05 02:53:35;;;;;;;;;;;;;;;;;;5115039;28;840;-70
2022/08/05 02:56:01;;;;;;;;;;;;;;;;;;5114663;28;844;-73
2022/08/05 02:58:27;;;;;;;;;;;;;;;;;;5114491;27;1901;-73
2022/08/05 03:00:54;;;;;;;;;;;;;;;;;;5115271;28;932;-74
2022/08/05 03:03:19;;;;;;;;;;;;;;;;;;5114575;28;1018;-73
2022/08/05 03:05:48;;;;;;;;;;;;;;;;;;5114889;28;966;-73
2022/08/05 03:08:14;;;;;;;;;;;;;;;;;;5115326;28;903;-72
2022/08/05 03:10:43;;;;;;;;;;;;;;;;;;5114908;28;836;-73
2022/08/05 03:13:15;;;;;;;;;;;;;;;;;;5114882;28;1216;-73
2022/08/05 03:15:45;;;;;;;;;;;;;;;;;;5114921;28;982;-73
2022/08/05 03:18:10;;;;;;;;;;;;;;;;;;5114067;28;1978;-73
2022/08/05 03:20:35;;;;;;;;;;;;;;;;;;5115474;28;975;-73
2022/08/05 03:23:01;;;;;;;;;;;;;;;;;;5115142;28;912;-73
2022/08/05 03:25:26;;;;;;;;;;;;;;;;;;5115359;28;824;-73
2022/08/05 03:27:52;;;;;;;;;;;;;;;;;;5116773;28;894;-74
2022/08/05 03:30:17;;;;;;;;;;;;;;;;;;5120019;28;1069;-72
2022/08/05 03:32:42;;;;;;;;;;;;;;;;;;5115730;28;920;-73
2022/08/05 03:35:08;;;;;;;;;;;;;;;;;;5120421;28;861;-73
2022/08/05 03:37:33;;;;;;;;;;;;;;;;;;5116475;27;1910;-73
2022/08/05 03:39:59;;;;;;;;;;;;;;;;;;5116276;28;840;-73
2022/08/05 03:42:24;;;;;;;;;;;;;;;;;;5118344;28;828;-73
2022/08/05 03:44:49;;;;;;;;;;;;;;;;;;5130047;28;922;-74
2022/08/05 03:47:14;;;;;;;;;;;;;;;;;;5128740;28;899;-73
2022/08/05 03:49:40;;;;;;;;;;;;;;;;;;5129946;28;832;-73
2022/08/05 03:52:07;;;;;;;;;;;;;;;;;;5130124;28;1097;-74
2022/08/05 03:54:47;;;;;;;;;;;;;;;;;;5129619;28;955;-74
2022/08/05 03:57:13;;;;;;;;;;;;;;;;;;5128987;28;1902;-73
2022/08/05 03:59:42;;;;;;;;;;;;;;;;;;5129839;28;923;-73
2022/08/05 04:02:09;;;;;;;;;;;;;;;;;;5133056;28;840;-73
2022/08/05 04:04:34;;;;;;;;;;;;;;;;;;5133561;28;1163;-73
2022/08/05 04:07:00;;;;;;;;;;;;;;;;;;5133889;28;1086;-73
2022/08/05 04:09:27;;;;;;;;;;;;;;;;;;5128232;28;1002;-71
2022/08/05 04:11:53;;;;;;;;;;;;;;;;;;5118948;28;1072;-71
2022/08/05 04:14:18;;;;;;;;;;;;;;;;;;5119968;28;797;-70
2022/08/05 04:16:44;;;;;;;;;;;;;;;;;;5115793;28;1949;-69
2022/08/05 04:19:12;;;;;;;;;;;;;;;;;;5116435;28;892;-70
2022/08/05 04:21:37;;;;;;;;;;;;;;;;;;5115913;28;1085;-70
2022/08/05 04:24:04;;;;;;;;;;;;;;;;;;5115773;28;983;-71
2022/08/05 04:26:29;;;;;;;;;;;;;;;;;;5114950;28;856;-69
2022/08/05 04:28:54;;;;;;;;;;;;;;;;;;5113642;28;922;-70
2022/08/05 04:31:19;;;;;;;;;;;;;;;;;;5112030;28;836;-70
2022/08/05 04:33:45;;;;;;;;;;;;;;;;;;5112894;28;844;-70
2022/08/05 04:36:11;;;;;;;;;;;;;;;;;;5113100;28;1901;-70
2022/08/05 04:38:36;;;;;;;;;;;;;;;;;;5112204;27;1065;-70
2022/08/05 04:41:02;;;;;;;;;;;;;;;;;;5112830;28;828;-70
2022/08/05 04:43:27;;;;;;;;;;;;;;;;;;5111559;28;891;-70
2022/08/05 04:45:52;;;;;;;;;;;;;;;;;;5112008;28;876;-70
2022/08/05 04:48:18;;;;;;;;;;;;;;;;;;5111559;28;947;-70
2022/08/05 04:50:44;;;;;;;;;;;;;;;;;;5111431;28;808;-70
2022/08/05 04:53:10;;;;;;;;;;;;;;;;;;5112084;28;852;-70
2022/08/05 04:55:36;;;;;;;;;;;;;;;;;;5110919;28;844;-70
2022/08/05 04:58:02;;;;;;;;;;;;;;;;;;5111589;28;1894;-71
2022/08/05 05:00:27;;;;;;;;;;;;;;;;;;5111669;28;836;-70
2022/08/05 05:02:52;;;;;;;;;;;;;;;;;;5111800;28;812;-70
2022/08/05 05:05:17;;;;;;;;;;;;;;;;;;5111774;28;817;-70
2022/08/05 05:07:44;;;;;;;;;;;;;;;;;;5111351;28;991;-70
2022/08/05 05:10:09;;;;;;;;;;;;;;;;;;5111777;28;801;-70
2022/08/05 05:12:34;;;;;;;;;;;;;;;;;;5110616;28;1078;-70
2022/08/05 05:14:59;;;;;;;;;;;;;;;;;;5111680;28;978;-70
2022/08/05 05:17:25;;;;;;;;;;;;;;;;;;5110153;28;1925;-70
2022/08/05 05:19:53;;;;;;;;;;;;;;;;;;5102636;28;1130;-69
2022/08/05 05:22:19;;;;;;;;;;;;;;;;;;5116357;28;1143;-69
2022/08/05 05:24:44;;;;;;;;;;;;;;;;;;5117557;28;876;-69
2022/08/05 05:27:09;;;;;;;;;;;;;;;;;;5118242;28;1117;-70
2022/08/05 05:29:35;;;;;;;;;;;;;;;;;;5117449;28;913;-70
2022/08/05 05:32:00;;;;;;;;;;;;;;;;;;5117063;28;883;-71
2022/08/05 05:34:25;;;;;;;;;;;;;;;;;;5118210;28;796;-70
2022/08/05 05:36:50;;;;;;;;;;;;;;;;;;5116724;28;1901;-70
2022/08/05 05:39:16;;;;;;;;;;;;;;;;;;5117988;28;891;-70
2022/08/05 05:41:41;;;;;;;;;;;;;;;;;;5117449;28;809;-70
2022/08/05 05:44:06;;;;;;;;;;;;;;;;;;5118610;27;902;-70
2022/08/05 05:46:32;;;;;;;;;;;;;;;;;;5117753;28;1162;-71
2022/08/05 05:48:57;;;;;;;;;;;;;;;;;;5118180;28;753;-71
2022/08/05 05:51:23;;;;;;;;;;;;;;;;;;5117768;28;868;-71
2022/08/05 05:53:49;;;;;;;;;;;;;;;;;;5118370;27;816;-71
2022/08/05 05:56:14;;;;;;;;;;;;;;;;;;5117864;27;1950;-71
2022/08/05 05:58:39;;;;;;;;;;;;;;;;;;5117808;27;828;-70
2022/08/05 06:01:04;;;;;;;;;;;;;;;;;;5118210;28;915;-71
2022/08/05 06:03:30;;;;;;;;;;;;;;;;;;5117127;28;809;-70
2022/08/05 06:05:55;;;;;;;;;;;;;;;;;;5117966;28;954;-70
2022/08/05 06:08:20;;;;;;;;;;;;;;;;;;5117750;27;1545;-71
2022/08/05 06:10:45;;;;;;;;;;;;;;;;;;5117257;28;868;-71
2022/08/05 06:13:10;;;;;;;;;;;;;;;;;;5117764;28;1119;-71
2022/08/05 06:15:36;;;;;;;;;;;;;;;;;;5115663;28;974;-71
2022/08/05 06:18:01;;;;;;;;;;;;;;;;;;5116600;28;1918;-70
2022/08/05 06:20:26;;;;;;;;;;;;;;;;;;5118075;28;888;-71
2022/08/05 06:22:51;;;;;;;;;;;;;;;;;;5116997;28;1023;-70
2022/08/05 06:25:17;;;;;;;;;;;;;;;;;;5109379;28;1048;-70
2022/08/05 06:27:42;;;;;;;;;;;;;;;;;;5097427;28;955;-70
2022/08/05 06:30:09;;;;;;;;;;;;;;;;;;5098693;28;879;-70
2022/08/05 06:32:34;;;;;;;;;;;;;;;;;;5096135;28;844;-70
2022/08/05 06:34:59;;;;;;;;;;;;;;;;;;5095312;28;892;-69
2022/08/05 06:37:26;;;;;;;;;;;;;;;;;;5093976;28;1902;-70
2022/08/05 06:39:51;;;;;;;;;;;;;;;;;;5094186;28;813;-70
2022/08/05 06:42:16;;;;;;;;;;;;;;;;;;5093181;28;797;-70
2022/08/05 06:44:41;;;;;;;;;;;;;;;;;;5091080;28;829;-70
2022/08/05 06:47:07;;;;;;;;;;;;;;;;;;5093804;28;798;-71
2022/08/05 06:49:32;;;;;;;;;;;;;;;;;;5092999;28;900;-71
2022/08/05 06:51:57;;;;;;;;;;;;;;;;;;5093587;28;797;-70
2022/08/05 06:54:23;;;;;;;;;;;;;;;;;;5092402;28;1356;-71
2022/08/05 06:56:48;;;;;;;;;;;;;;;;;;5092774;28;1902;-70
2022/08/05 06:59:13;;;;;;;;;;;;;;;;;;5093524;28;888;-70
2022/08/05 07:01:38;;;;;;;;;;;;;;;;;;5093473;28;849;-70
2022/08/05 07:04:04;;;;;;;;;;;;;;;;;;5093398;28;852;-70
2022/08/05 07:06:29;;;;;;;;;;;;;;;;;;5093005;28;947;-71
2022/08/05 07:08:54;;;;;;;;;;;;;;;;;;5092921;28;829;-70
2022/08/05 07:11:19;;;;;;;;;;;;;;;;;;5093663;28;762;-71
2022/08/05 07:19:13;;;;;;;;;;;;;;;;;;5093542;28;696;-70
2022/08/05 07:21:38;;;;;;;;;;;;;;;;;;5092782;28;837;-70
2022/08/05 07:24:03;;;;;;;;;;;;;;;;;;5093502;28;1215;-71
2022/08/05 07:26:29;;;;;;;;;;;;;;;;;;5112213;28;1124;-71
2022/08/05 07:28:54;;;;;;;;;;;;;;;;;;5112818;28;982;-71
2022/08/05 07:31:19;;;;;;;;;;;;;;;;;;5113352;28;899;-71
2022/08/05 07:33:44;;;;;;;;;;;;;;;;;;5113010;28;911;-70
2022/08/05 07:36:10;;;;;;;;;;;;;;;;;;5111890;28;908;-70
2022/08/05 07:38:36;;;;;;;;;;;;;;;;;;5112705;28;1905;-70
2022/08/05 07:41:05;;;;;;;;;;;;;;;;;;5113281;28;852;-71
2022/08/05 07:43:30;;;;;;;;;;;;;;;;;;5112679;28;906;-71
2022/08/05 07:45:56;;;;;;;;;;;;;;;;;;5112949;28;915;-70
2022/08/05 07:48:21;;;;;;;;;;;;;;;;;;5112817;28;904;-71
2022/08/05 07:50:46;;;;;;;;;;;;;;;;;;5112099;28;817;-70
2022/08/05 07:53:11;;;;;;;;;;;;;;;;;;5112856;28;987;-71
2022/08/05 07:55:37;;;;;;;;;;;;;;;;;;5111303;28;821;-70
2022/08/05 07:58:02;;;;;;;;;;;;;;;;;;5111539;28;1959;-71
2022/08/05 08:00:27;;;;;;;;;;;;;;;;;;5112173;28;984;-70
2022/08/05 08:02:52;;;;;;;;;;;;;;;;;;5112679;28;892;-71
2022/08/05 08:05:18;;;;;;;;;;;;;;;;;;5113372;28;832;-71
2022/08/05 08:07:43;;;;;;;;;;;;;;;;;;5111659;28;1456;-71
2022/08/05 08:10:08;;;;;;;;;;;;;;;;;;5113518;28;884;-70
2022/08/05 08:12:34;;;;;;;;;;;;;;;;;;5113336;28;1351;-71
2022/08/05 08:14:59;;;;;;;;;;;;;;;;;;5113434;28;879;-70
2022/08/05 08:17:24;;;;;;;;;;;;;;;;;;5112975;28;1910;-71
2022/08/05 08:19:50;;;;;;;;;;;;;;;;;;5113085;28;896;-71
2022/08/05 08:22:15;;;;;;;;;;;;;;;;;;5113127;28;971;-71
2022/08/05 08:24:41;;;;;;;;;;;;;;;;;;5112375;28;809;-71
2022/08/05 08:27:07;;;;;;;;;;;;;;;;;;5111817;28;945;-71
2022/08/05 08:29:32;;;;;;;;;;;;;;;;;;5111140;28;754;-71
2022/08/05 08:31:57;;;;;;;;;;;;;;;;;;5110554;28;1524;-71
2022/08/05 08:34:23;;;;;;;;;;;;;;;;;;5111918;28;903;-71
2022/08/05 08:36:48;;;;;;;;;;;;;;;;;;5111000;28;1961;-71
2022/08/05 08:39:16;;;;;;;;;;;;;;;;;;5112009;28;820;-71
2022/08/05 08:41:41;;;;;;;;;;;;;;;;;;5111349;28;835;-71
2022/08/05 08:44:07;;;;;;;;;;;;;;;;;;5111913;28;1955;-71
2022/08/05 08:46:33;;;;;;;;;;;;;;;;;;5111608;28;812;-71
2022/08/05 08:49:01;;;;;;;;;;;;;;;;;;5111614;28;888;-71
2022/08/05 08:51:26;;;;;;;;;;;;;;;;;;5111126;28;852;-71
2022/08/05 08:53:52;;;;;;;;;;;;;;;;;;5111799;28;817;-71
2022/08/05 08:56:19;;;;;;;;;;;;;;;;;;5111082;28;863;-71
2022/08/05 08:58:45;;;;;;;;;;;;;;;;;;5111235;28;864;-71
2022/08/05 09:01:11;;;;;;;;;;;;;;;;;;5110431;28;888;-71
2022/08/05 09:03:37;;;;;;;;;;;;;;;;;;5109969;28;1639;-71
2022/08/05 09:06:02;;;;;;;;;;;;;;;;;;5111214;28;893;-70
2022/08/05 09:08:27;;;;;;;;;;;;;;;;;;5111459;28;1058;-70
2022/08/05 09:10:53;;;;;;;;;;;;;;;;;;5111327;28;962;-71
2022/08/05 09:13:18;;;;;;;;;;;;;;;;;;5111197;28;1072;-71
2022/08/05 09:15:44;;;;;;;;;;;;;;;;;;5111120;28;824;-71
2022/08/05 09:18:09;;;;;;;;;;;;;;;;;;5111727;28;1984;-71
2022/08/05 09:20:35;;;;;;;;;;;;;;;;;;5111356;28;883;-71
2022/08/05 09:23:00;;;;;;;;;;;;;;;;;;5111507;28;910;-73
2022/08/05 09:25:26;;;;;;;;;;;;;;;;;;5112515;28;781;-73
2022/08/05 09:27:51;;;;;;;;;;;;;;;;;;5110199;28;940;-73
2022/08/05 09:30:16;;;;;;;;;;;;;;;;;;5111690;28;848;-73
2022/08/05 09:32:42;;;;;;;;;;;;;;;;;;5111311;28;895;-73
2022/08/05 09:35:11;;;;;;;;;;;;;;;;;;5111506;28;920;-73
2022/08/05 09:37:37;;;;;;;;;;;;;;;;;;5111770;28;1964;-72
2022/08/05 09:40:02;;;;;;;;;;;;;;;;;;5111926;28;867;-73
2022/08/05 09:42:37;;;;;;;;;;;;;;;;;;5111555;28;986;-73
2022/08/05 09:45:05;;;;;;;;;;;;;;;;;;5112324;28;994;-72
2022/08/05 09:47:30;;;;;;;;;;;;;;;;;;5111729;28;924;-73
2022/08/05 09:49:56;;;;;;;;;;;;;;;;;;5112599;28;887;-72
2022/08/05 09:52:23;;;;;;;;;;;;;;;;;;5111132;28;951;-72
2022/08/05 09:54:52;;;;;;;;;;;;;;;;;;5110947;28;928;-72
2022/08/05 09:57:28;;;;;;;;;;;;;;;;;;5110967;28;1905;-71
2022/08/05 09:59:56;;;;;;;;;;;;;;;;;;5111738;28;856;-73
2022/08/05 10:02:34;;;;;;;;;;;;;;;;;;5112369;28;824;-72
2022/08/05 10:05:03;;;;;;;;;;;;;;;;;;5112486;28;942;-73
2022/08/05 10:07:43;;;;;;;;;;;;;;;;;;5112213;28;915;-73
2022/08/05 10:10:09;;;;;;;;;;;;;;;;;;5116124;28;876;-74
2022/08/05 10:12:45;;;;;;;;;;;;;;;;;;5114714;28;1100;-73
2022/08/05 10:15:14;;;;;;;;;;;;;;;;;;5115543;28;1053;-73
2022/08/05 10:17:40;;;;;;;;;;;;;;;;;;5114989;27;1955;-72
2022/08/05 10:20:06;;;;;;;;;;;;;;;;;;5115427;28;915;-73
2022/08/05 10:22:31;;;;;;;;;;;;;;;;;;5114866;28;847;-73
2022/08/05 10:24:56;;;;;;;;;;;;;;;;;;5115050;28;978;-73
2022/08/05 10:27:22;;;;;;;;;;;;;;;;;;5113452;28;957;-73
2022/08/05 10:29:48;;;;;;;;;;;;;;;;;;5115134;28;903;-72
2022/08/05 10:32:13;;;;;;;;;;;;;;;;;;5114973;28;955;-72
2022/08/05 10:34:38;;;;;;;;;;;;;;;;;;5114799;28;932;-73
2022/08/05 10:37:04;;;;;;;;;;;;;;;;;;5114412;28;1950;-73
2022/08/05 10:39:32;;;;;;;;;;;;;;;;;;5114523;28;1066;-72
2022/08/05 10:41:57;;;;;;;;;;;;;;;;;;5114816;28;879;-72
2022/08/05 10:44:23;;;;;;;;;;;;;;;;;;5114430;28;1194;-73
2022/08/05 10:46:55;;;;;;;;;;;;;;;;;;5104161;28;1221;-73
2022/08/05 10:49:21;;;;;;;;;;;;;;;;;;5096094;28;1056;-74
2022/08/05 10:51:47;;;;;;;;;;;;;;;;;;5094014;28;817;-75
2022/08/05 10:54:12;;;;;;;;;;;;;;;;;;5093372;28;972;-74
2022/08/05 10:56:48;;;;;;;;;;;;;;;;;;5093729;28;1960;-74
2022/08/05 10:59:30;;;;;;;;;;;;;;;;;;5094067;28;855;-73
2022/08/05 11:02:05;;;;;;;;;;;;;;;;;;5093844;28;1046;-74
2022/08/05 11:04:31;;;;;;;;;;;;;;;;;;5093524;28;896;-74
2022/08/05 11:06:56;;;;;;;;;;;;;;;;;;5092570;28;871;-74
2022/08/05 11:09:22;;;;;;;;;;;;;;;;;;5094216;28;837;-75
2022/08/05 11:11:49;;;;;;;;;;;;;;;;;;5093376;28;920;-71
2022/08/05 11:14:32;;;;;;;;;;;;;;;;;;5092908;28;1211;-70
2022/08/05 11:17:17;;;;;;;;;;;;;;;;;;5093385;28;1898;-71
2022/08/05 11:19:47;;;;;;;;;;;;;;;;;;5092475;28;912;-70
2022/08/05 11:22:31;;;;;;;;;;;;;;;;;;5092770;28;1134;-71
2022/08/05 11:25:15;;;;;;;;;;;;;;;;;;5092844;28;1596;-71
2022/08/05 11:27:40;;;;;;;;;;;;;;;;;;5094218;28;1018;-71
2022/08/05 11:30:06;;;;;;;;;;;;;;;;;;5094314;28;907;-70
2022/08/05 11:32:33;;;;;;;;;;;;;;;;;;5094582;28;805;-70
2022/08/05 11:34:58;;;;;;;;;;;;;;;;;;5094280;28;835;-71
2022/08/05 11:37:40;;;;;;;;;;;;;;;;;;5094051;28;1902;-70
2022/08/05 11:40:06;;;;;;;;;;;;;;;;;;5093963;28;840;-70
2022/08/05 11:42:35;;;;;;;;;;;;;;;;;;5093613;28;884;-70
2022/08/05 11:45:02;;;;;;;;;;;;;;;;;;5094132;28;848;-69
2022/08/05 11:47:27;;;;;;;;;;;;;;;;;;5093318;28;868;-70
2022/08/05 11:49:56;;;;;;;;;;;;;;;;;;5093078;28;884;-70
2022/08/05 11:52:22;;;;;;;;;;;;;;;;;;5093568;28;1073;-69
2022/08/05 11:54:49;;;;;;;;;;;;;;;;;;5092795;28;880;-69
2022/08/05 11:57:15;;;;;;;;;;;;;;;;;;5093286;28;1949;-69
2022/08/05 11:59:40;;;;;;;;;;;;;;;;;;5092739;28;979;-70
2022/08/05 12:02:09;;;;;;;;;;;;;;;;;;5093820;28;896;-70
2022/08/05 12:04:37;;;;;;;;;;;;;;;;;;5092605;28;903;-70
2022/08/05 12:07:02;;;;;;;;;;;;;;;;;;5092830;28;1069;-70
2022/08/05 12:09:28;;;;;;;;;;;;;;;;;;5091767;28;978;-69
2022/08/05 12:11:53;;;;;;;;;;;;;;;;;;5092165;28;974;-70
2022/08/05 12:14:19;;;;;;;;;;;;;;;;;;5090416;28;2003;-70
2022/08/05 12:16:47;;;;;;;;;;;;;;;;;;5091953;28;1918;-71
2022/08/05 12:19:14;;;;;;;;;;;;;;;;;;5092200;28;832;-70
2022/08/05 12:21:43;;;;;;;;;;;;;;;;;;5092192;28;891;-71
2022/08/05 12:24:10;;;;;;;;;;;;;;;;;;5093001;28;789;-70
2022/08/05 12:26:38;;;;;;;;;;;;;;;;;;5091800;28;958;-71
2022/08/05 12:29:08;;;;;;;;;;;;;;;;;;5092203;28;1113;-71
2022/08/05 12:31:34;;;;;;;;;;;;;;;;;;5090660;28;971;-71
2022/08/05 12:34:04;;;;;;;;;;;;;;;;;;5092112;28;943;-71
2022/08/05 12:36:30;;;;;;;;;;;;;;;;;;5091094;28;2322;-71
2022/08/05 12:38:56;;;;;;;;;;;;;;;;;;5090640;28;955;-71
2022/08/05 12:41:21;;;;;;;;;;;;;;;;;;5107288;28;1297;-71
2022/08/05 12:43:56;;;;;;;;;;;;;;;;;;5111160;28;1201;-71
2022/08/05 12:46:22;;;;;;;;;;;;;;;;;;5110799;28;983;-71
2022/08/05 12:48:55;;;;;;;;;;;;;;;;;;5111547;28;860;-71
2022/08/05 12:51:20;;;;;;;;;;;;;;;;;;5112252;28;911;-71
2022/08/05 12:53:45;;;;;;;;;;;;;;;;;;5107132;28;1127;-75
2022/08/05 12:56:17;;;;;;;;;;;;;;;;;;5091982;28;1167;-74
2022/08/05 12:58:42;;;;;;;;;;;;;;;;;;5091929;28;1890;-75
2022/08/05 13:01:07;;;;;;;;;;;;;;;;;;5098057;28;1172;-75
2022/08/05 13:03:36;;;;;;;;;;;;;;;;;;5102698;28;1112;-74
2022/08/05 13:06:01;;;;;;;;;;;;;;;;;;5097289;28;1176;-75
2022/08/05 13:08:30;;;;;;;;;;;;;;;;;;5103843;28;1101;-75
2022/08/05 13:10:59;;;;;;;;;;;;;;;;;;5113654;28;1147;-75
2022/08/05 13:13:26;;;;;;;;;;;;;;;;;;5112775;28;1249;-75
2022/08/05 13:15:51;;;;;;;;;;;;;;;;;;5113514;28;953;-74
2022/08/05 13:18:17;;;;;;;;;;;;;;;;;;5113205;28;1980;-75
2022/08/05 13:20:42;;;;;;;;;;;;;;;;;;5094269;28;860;-75
2022/08/05 13:23:08;;;;;;;;;;;;;;;;;;5112544;28;896;-75
2022/08/05 13:25:34;;;;;;;;;;;;;;;;;;5112360;28;875;-74
2022/08/05 13:28:00;;;;;;;;;;;;;;;;;;5113033;28;985;-74
2022/08/05 13:30:25;;;;;;;;;;;;;;;;;;5111932;28;839;-71
2022/08/05 13:32:51;;;;;;;;;;;;;;;;;;5111475;28;886;-72
2022/08/05 13:35:17;;;;;;;;;;;;;;;;;;5111328;28;908;-71
2022/08/05 13:37:42;;;;;;;;;;;;;;;;;;5111638;28;1913;-71
2022/08/05 13:40:08;;;;;;;;;;;;;;;;;;5111774;28;1010;-71
2022/08/05 13:42:33;;;;;;;;;;;;;;;;;;5112481;28;944;-71
2022/08/05 13:44:59;;;;;;;;;;;;;;;;;;5115723;28;919;-71
2022/08/05 13:47:24;;;;;;;;;;;;;;;;;;5115462;28;852;-71
2022/08/05 13:49:51;;;;;;;;;;;;;;;;;;5115768;28;882;-71
2022/08/05 13:52:18;;;;;;;;;;;;;;;;;;5116083;28;816;-71
2022/08/05 13:54:43;;;;;;;;;;;;;;;;;;5113727;28;1062;-71
2022/08/05 13:57:09;;;;;;;;;;;;;;;;;;5115760;28;1977;-71
2022/08/05 13:59:34;;;;;;;;;;;;;;;;;;5115489;28;892;-71
2022/08/05 14:02:01;;;;;;;;;;;;;;;;;;5115513;28;836;-71
2022/08/05 14:07:11;;;;;;;;;;;;;;;;;;5114390;28;789;-71
2022/08/05 14:09:38;;;;;;;;;;;;;;;;;;5115201;28;926;-71
2022/08/05 14:12:03;;;;;;;;;;;;;;;;;;5115268;28;1384;-71
2022/08/05 14:14:28;;;;;;;;;;;;;;;;;;5114344;28;1167;-70
2022/08/05 14:16:54;;;;;;;;;;;;;;;;;;5115104;28;1906;-71
2022/08/05 14:19:19;;;;;;;;;;;;;;;;;;5115321;28;836;-71
2022/08/05 14:21:44;;;;;;;;;;;;;;;;;;5114445;28;845;-71
2022/08/05 14:29:39;;;;;;;;;;;;;;;;;;5035358;22;2033;-75
2022/08/05 14:32:05;;;;;;;;;;;;;;;;;;5099129;28;1498;-75
2022/08/05 14:34:30;;;;;;;;;;;;;;;;;;5082230;28;1006;-74
2022/08/05 14:36:56;;;;;;;;;;;;;;;;;;5081584;28;1974;-75
2022/08/05 14:39:22;;;;;;;;;;;;;;;;;;5081925;28;896;-75
2022/08/05 14:41:48;;;;;;;;;;;;;;;;;;5100688;28;834;-74
2022/08/05 14:44:13;;;;;;;;;;;;;;;;;;5063663;28;1306;-75
2022/08/05 14:46:38;;;;;;;;;;;;;;;;;;5063133;28;1326;-76
2022/08/05 14:49:04;;;;;;;;;;;;;;;;;;5098934;28;921;-74
2022/08/05 14:51:30;;;;;;;;;;;;;;;;;;5098396;28;879;-74
2022/08/05 14:53:55;;;;;;;;;;;;;;;;;;5062584;28;1294;-75
2022/08/05 14:56:21;;;;;;;;;;;;;;;;;;5097540;28;856;-75
2022/08/05 14:58:46;;;;;;;;;;;;;;;;;;5079312;28;1905;-75
2022/08/05 15:01:11;;;;;;;;;;;;;;;;;;5061084;28;1311;-74
2022/08/05 15:03:36;;;;;;;;;;;;;;;;;;5078304;28;1124;-74
2022/08/05 15:06:02;;;;;;;;;;;;;;;;;;5063828;28;1322;-75
2022/08/05 15:08:28;;;;;;;;;;;;;;;;;;5096670;28;1288;-75
2022/08/05 15:10:53;;;;;;;;;;;;;;;;;;5077195;28;900;-75
2022/08/05 15:13:18;;;;;;;;;;;;;;;;;;5060305;28;1358;-75
2022/08/05 15:15:44;;;;;;;;;;;;;;;;;;5061145;28;1305;-75
2022/08/05 15:18:09;;;;;;;;;;;;;;;;;;5077585;28;1901;-75
2022/08/05 15:20:34;;;;;;;;;;;;;;;;;;5061240;28;1374;-75
2022/08/05 15:23:04;;;;;;;;;;;;;;;;;;5077944;28;1182;-73
2022/08/05 15:25:29;;;;;;;;;;;;;;;;;;5098047;28;902;-78
2022/08/05 15:27:54;;;;;;;;;;;;;;;;;;5081697;28;1237;-79
2022/08/05 15:30:20;;;;;;;;;;;;;;;;;;5060260;28;1418;-77
2022/08/05 15:32:45;;;;;;;;;;;;;;;;;;5076333;28;1242;-76
2022/08/05 15:35:11;;;;;;;;;;;;;;;;;;5077888;28;1199;-77
2022/08/05 15:37:36;;;;;;;;;;;;;;;;;;5085294;28;1910;-76
2022/08/05 15:40:01;;;;;;;;;;;;;;;;;;5085724;28;1293;-76
2022/08/05 15:42:27;;;;;;;;;;;;;;;;;;5063816;28;1284;-76
2022/08/05 15:44:53;;;;;;;;;;;;;;;;;;5043945;28;1170;-77
2022/08/05 15:47:19;;;;;;;;;;;;;;;;;;5060873;28;1391;-76
2022/08/05 15:49:47;;;;;;;;;;;;;;;;;;5060986;28;793;-77
2022/08/05 15:52:12;;;;;;;;;;;;;;;;;;5079585;28;834;-76
2022/08/05 15:54:38;;;;;;;;;;;;;;;;;;5079289;28;901;-77
2022/08/05 15:57:03;;;;;;;;;;;;;;;;;;5060317;28;1973;-76
2022/08/05 15:59:29;;;;;;;;;;;;;;;;;;5078773;28;860;-77
2022/08/05 16:01:54;;;;;;;;;;;;;;;;;;5078918;28;900;-75
2022/08/05 16:04:20;;;;;;;;;;;;;;;;;;5059034;28;1447;-76
2022/08/05 16:06:45;;;;;;;;;;;;;;;;;;5076344;28;848;-76
2022/08/05 16:09:11;;;;;;;;;;;;;;;;;;5041927;28;1208;-77
2022/08/05 16:11:36;;;;;;;;;;;;;;;;;;5057898;28;924;-76
2022/08/05 16:14:02;;;;;;;;;;;;;;;;;;5076738;28;840;-77
2022/08/05 16:16:27;;;;;;;;;;;;;;;;;;5041573;28;1297;-77
2022/08/05 16:18:52;;;;;;;;;;;;;;;;;;5057638;28;1954;-76
2022/08/05 16:21:17;;;;;;;;;;;;;;;;;;5075385;28;829;-77
2022/08/05 16:23:43;;;;;;;;;;;;;;;;;;5057275;28;1125;-77
2022/08/05 16:26:09;;;;;;;;;;;;;;;;;;5040396;28;1255;-77
2022/08/05 16:28:36;;;;;;;;;;;;;;;;;;5056491;28;1179;-76
2022/08/05 16:31:01;;;;;;;;;;;;;;;;;;5056452;28;1253;-77
2022/08/05 16:33:30;;;;;;;;;;;;;;;;;;5074748;28;848;-76
2022/08/05 16:35:56;;;;;;;;;;;;;;;;;;5075097;28;835;-77
2022/08/05 16:38:21;;;;;;;;;;;;;;;;;;5057406;28;1938;-76
2022/08/05 16:40:47;;;;;;;;;;;;;;;;;;5041141;28;1443;-77
2022/08/05 16:43:32;;;;;;;;;;;;;;;;;;5057139;28;1314;-77
2022/08/05 16:45:58;;;;;;;;;;;;;;;;;;5074922;28;895;-77
2022/08/05 16:48:23;;;;;;;;;;;;;;;;;;5041016;28;1442;-77
2022/08/05 16:50:49;;;;;;;;;;;;;;;;;;5076151;28;920;-76
2022/08/05 16:53:14;;;;;;;;;;;;;;;;;;5068221;28;1298;-76
2022/08/05 16:55:40;;;;;;;;;;;;;;;;;;5079273;28;1121;-77
2022/08/05 16:58:05;;;;;;;;;;;;;;;;;;5073548;28;1950;-76
2022/08/05 17:00:30;;;;;;;;;;;;;;;;;;5057419;28;1155;-78
2022/08/05 17:02:56;;;;;;;;;;;;;;;;;;5075435;28;921;-78
2022/08/05 17:05:21;;;;;;;;;;;;;;;;;;5074745;28;904;-77
2022/08/05 17:07:48;;;;;;;;;;;;;;;;;;5040753;28;1271;-76
2022/08/05 17:10:14;;;;;;;;;;;;;;;;;;5057952;28;876;-77
2022/08/05 17:12:39;;;;;;;;;;;;;;;;;;5058063;28;1277;-82
2022/08/05 17:15:06;;;;;;;;;;;;;;;;;;5058506;28;974;-79
2022/08/05 17:17:34;;;;;;;;;;;;;;;;;;5056774;28;1967;-77
2022/08/05 17:20:00;;;;;;;;;;;;;;;;;;5056964;28;1144;-77
2022/08/05 17:22:25;;;;;;;;;;;;;;;;;;5056922;28;1253;-78